Time;durP1;ratioP1;P1;durP2;ratioP2;P2;SDS_P1;SDS_P2;PMS_P1;PMS_P2;Temp;Humidity;BMP_temperature;BMP_pressure;BME280_temperature;BME280_humidity;BME280_pressure;Samples;Min_cycle;Max_cycle;Signal;HPM_P1;HPM_P2
2022/02/02 00:00:47;;;;;;;22.05;12.68;;;;;;;0.06;100.00;94013.91;5053106;28;20111;-76
2022/02/02 00:03:12;;;;;;;19.27;13.95;;;;;;;-0.01;100.00;94020.44;5071065;28;20031;-76
2022/02/02 00:06:32;;;;;;;20.80;12.85;;;;;;;0.06;100.00;94016.47;5052111;28;20021;-76
2022/02/02 00:08:34;;;;;;;23.77;13.38;;;;;;;0.04;100.00;94015.75;5058628;28;20561;-76
2022/02/02 00:16:24;;;;;;;27.98;13.30;;;;;;;0.07;100.00;94012.94;5045585;28;20029;-76
2022/02/02 00:19:01;;;;;;;25.50;15.87;;;;;;;-0.02;100.00;94006.09;5053978;28;20020;-76
2022/02/02 00:21:40;;;;;;;28.70;14.73;;;;;;;-0.04;100.00;94015.63;5070348;28;20402;-76
2022/02/02 00:24:16;;;;;;;33.88;15.73;;;;;;;-0.05;100.00;94014.00;5054825;28;20032;-75
2022/02/02 00:26:43;;;;;;;28.80;14.40;;;;;;;-0.01;100.00;94012.81;5052705;28;20487;-76
2022/02/02 00:29:17;;;;;;;23.15;13.43;;;;;;;0.01;100.00;94013.47;5052537;28;20103;-76
2022/02/02 00:31:48;;;;;;;25.40;15.02;;;;;;;-0.05;100.00;94012.28;5052568;28;20078;-76
2022/02/02 00:34:19;;;;;;;30.40;14.15;;;;;;;-0.02;100.00;94003.56;5053163;28;20028;-75
2022/02/02 00:36:54;;;;;;;26.35;14.35;;;;;;;-0.01;100.00;94007.72;5053016;28;20123;-75
2022/02/02 00:39:20;;;;;;;21.92;13.52;;;;;;;-0.01;100.00;94002.66;5051996;28;20017;-75
2022/02/02 00:41:46;;;;;;;20.95;12.73;;;;;;;0.05;100.00;94004.66;5068013;28;20074;-75
2022/02/02 00:44:14;;;;;;;25.45;15.10;;;;;;;-0.04;100.00;93997.81;5050411;28;20025;-76
2022/02/02 00:46:40;;;;;;;20.60;13.43;;;;;;;0.02;100.00;94007.47;5052229;28;20474;-75
2022/02/02 00:49:06;;;;;;;19.98;12.63;;;;;;;0.06;100.00;94000.38;5051399;28;20060;-76
2022/02/02 00:51:42;;;;;;;18.55;12.80;;;;;;;0.07;100.00;93992.59;5052194;28;20028;-77
2022/02/02 00:54:12;;;;;;;18.08;12.98;;;;;;;0.05;100.00;93986.03;5069751;28;20036;-77
2022/02/02 00:56:38;;;;;;;22.40;13.38;;;;;;;-0.06;100.00;93981.84;5066833;28;20524;-77
2022/02/02 00:59:03;;;;;;;17.75;12.55;;;;;;;0.00;100.00;93977.06;5052137;28;20033;-77
2022/02/02 01:01:28;;;;;;;17.15;11.13;;;;;;;0.10;100.00;93978.84;5050508;28;20029;-77
2022/02/02 01:03:55;;;;;;;17.80;11.27;;;;;;;0.03;100.00;93973.47;5052030;28;20420;-77
2022/02/02 01:06:22;;;;;;;23.17;12.75;;;;;;;-0.01;100.00;93972.91;5050838;28;20059;-77
2022/02/02 01:19:37;;;;;;;24.65;12.82;;;;;;;0.00;100.00;93973.72;5053633;28;20043;-76
2022/02/02 01:30:00;;;;;;;20.92;14.43;;;;;;;0.02;100.00;93948.13;5050247;28;20500;-77
2022/02/02 01:32:26;;;;;;;24.63;14.05;;;;;;;0.01;100.00;93942.25;5048452;28;20074;-77
2022/02/02 01:34:53;;;;;;;29.98;16.13;;;;;;;-0.09;100.00;93934.59;5031395;28;20029;-74
2022/02/02 01:37:19;;;;;;;24.80;16.58;;;;;;;-0.03;100.00;93935.81;5031544;28;20040;-75
2022/02/02 01:39:46;;;;;;;24.88;16.60;;;;;;;-0.01;100.00;93939.03;5046828;28;20114;-77
2022/02/02 01:42:15;;;;;;;30.50;16.58;;;;;;;-0.10;100.00;93932.19;5048239;28;20013;-76
2022/02/02 01:45:08;;;;;;;27.33;17.02;;;;;;;-0.02;100.00;93940.78;5029945;28;20036;-76
2022/02/02 01:47:36;;;;;;;23.17;14.95;;;;;;;-0.06;100.00;93931.78;5048050;28;20036;-76
2022/02/02 01:55:00;;;;;;;27.63;17.98;;;;;;;-0.13;100.00;93919.75;5048652;28;20025;-76
2022/02/02 01:59:52;;;;;;;36.42;21.60;;;;;;;-0.10;100.00;93916.94;5051196;28;20032;-76
2022/02/02 02:02:18;;;;;;;35.25;20.85;;;;;;;-0.03;100.00;93907.81;5049198;28;20051;-77
2022/02/02 02:04:43;;;;;;;31.98;20.10;;;;;;;-0.06;100.00;93910.63;5050948;28;20090;-76
2022/02/02 02:07:09;;;;;;;29.85;19.70;;;;;;;-0.02;100.00;93904.34;5050047;28;20422;-77
2022/02/02 02:09:34;;;;;;;36.75;20.27;;;;;;;0.01;100.00;93909.16;5067620;28;20060;-76
2022/02/02 02:12:06;;;;;;;31.55;19.70;;;;;;;0.03;100.00;93911.59;5051101;28;20073;-77
2022/02/02 02:16:57;;;;;;;37.00;21.48;;;;;;;0.05;100.00;93894.44;5051096;28;20435;-76
2022/02/02 02:19:23;;;;;;;34.28;21.20;;;;;;;0.03;100.00;93892.03;5049554;28;20020;-77
2022/02/02 02:21:50;;;;;;;40.58;23.75;;;;;;;0.00;100.00;93893.09;5050783;28;20059;-77
2022/02/02 02:24:16;;;;;;;44.08;24.52;;;;;;;0.01;100.00;93896.44;5049995;28;20028;-76
2022/02/02 02:26:42;;;;;;;39.95;22.88;;;;;;;0.02;100.00;93900.59;5049969;28;20062;-76
2022/02/02 02:30:15;;;;;;;33.13;21.95;;;;;;;0.01;100.00;93904.06;5046846;28;20064;-77
2022/02/02 02:32:23;;;;;;;28.30;17.42;;;;;;;-0.03;100.00;93878.09;5049814;28;20068;-77
2022/02/02 02:37:37;;;;;;;28.67;18.63;;;;;;;0.03;100.00;93881.88;5047852;28;20033;-77
2022/02/02 02:57:12;;;;;;;38.58;22.65;;;;;;;-0.04;100.00;93886.69;5050412;28;20607;-75
2022/02/02 02:59:46;;;;;;;39.83;24.70;;;;;;;-0.01;100.00;93886.41;5050899;28;20123;-75
2022/02/02 03:32:53;;;;;;;52.28;28.23;;;;;;;-0.06;100.00;93878.38;5046656;28;20086;-76
2022/02/02 03:51:32;;;;;;;47.80;27.75;;;;;;;-0.11;100.00;93859.38;5032654;28;20052;-77
2022/02/02 03:56:36;;;;;;;49.72;29.13;;;;;;;-0.09;100.00;93857.47;5048142;28;20071;-77
2022/02/02 04:07:11;;;;;;;52.97;27.42;;;;;;;-0.16;100.00;93851.34;5048888;28;20436;-77
2022/02/02 04:09:38;;;;;;;53.45;29.98;;;;;;;-0.12;100.00;93862.84;5050800;28;20098;-77
2022/02/02 05:53:16;;;;;;;48.45;28.00;;;;;;;-0.43;100.00;93889.31;5047815;28;20548;-76
2022/02/02 05:55:44;;;;;;;48.80;27.70;;;;;;;-0.44;100.00;93887.69;5046604;28;20044;-76
2022/02/02 05:58:10;;;;;;;44.95;26.83;;;;;;;-0.47;100.00;93888.78;5062220;28;20106;-76
2022/02/02 06:00:37;;;;;;;50.10;28.83;;;;;;;-0.40;100.00;93886.50;5049547;28;20857;-76
2022/02/02 06:03:11;;;;;;;54.22;29.27;;;;;;;-0.39;100.00;93893.22;5050652;28;20413;-75
2022/02/02 06:05:37;;;;;;;51.17;30.67;;;;;;;-0.51;100.00;93895.03;5051064;28;20029;-76
2022/02/02 06:08:10;;;;;;;54.55;29.45;;;;;;;-0.46;100.00;93904.84;5049480;28;20350;-77
2022/02/02 06:10:36;;;;;;;52.60;30.95;;;;;;;-0.43;100.00;93905.38;5050475;28;20538;-78
2022/02/02 06:13:02;;;;;;;48.53;29.58;;;;;;;-0.45;100.00;93909.00;5065748;28;20028;-77
2022/02/02 06:15:28;;;;;;;51.83;30.15;;;;;;;-0.47;100.00;93903.22;5050859;28;20112;-77
2022/02/02 06:17:53;;;;;;;52.60;31.27;;;;;;;-0.41;100.00;93898.41;5066331;28;20024;-77
2022/02/02 06:20:20;;;;;;;48.92;29.13;;;;;;;-0.41;100.00;93907.78;5068437;28;20032;-77
2022/02/02 06:23:08;;;;;;;54.45;30.70;;;;;;;-0.42;100.00;93906.19;5049976;28;20110;-76
2022/02/02 06:25:36;;;;;;;53.53;29.45;;;;;;;-0.38;100.00;93908.31;5053602;28;20071;-77
2022/02/02 06:28:05;;;;;;;56.17;31.48;;;;;;;-0.40;100.00;93919.56;5050160;28;20029;-76
2022/02/02 06:30:32;;;;;;;56.95;31.70;;;;;;;-0.45;100.00;93912.31;5048906;28;20116;-76
2022/02/02 06:33:06;;;;;;;48.63;29.83;;;;;;;-0.45;100.00;93909.00;5050488;28;20082;-77
2022/02/02 06:35:32;;;;;;;56.58;31.70;;;;;;;-0.38;100.00;93908.31;5032766;28;20032;-77
2022/02/02 06:37:58;;;;;;;51.13;29.73;;;;;;;-0.37;100.00;93915.03;5049488;28;20036;-77
2022/02/02 06:40:24;;;;;;;56.83;31.83;;;;;;;-0.38;100.00;93931.19;5033642;28;20455;-77
2022/02/02 06:42:50;;;;;;;51.47;29.55;;;;;;;-0.25;100.00;93933.50;5048322;28;20029;-77
2022/02/02 06:45:16;;;;;;;49.40;31.25;;;;;;;-0.26;100.00;93937.81;5050584;28;20071;-76
2022/02/02 06:47:44;;;;;;;50.15;31.38;;;;;;;-0.22;100.00;93935.78;5048504;28;20032;-74
2022/02/02 06:50:24;;;;;;;51.33;29.10;;;;;;;-0.29;100.00;93932.19;5067626;28;20021;-75
2022/02/02 06:53:04;;;;;;;54.67;30.65;;;;;;;-0.25;100.00;93931.75;5048374;28;20024;-75
2022/02/02 06:55:40;;;;;;;52.50;29.73;;;;;;;-0.20;100.00;93931.38;5070474;28;20017;-74
2022/02/02 06:58:22;;;;;;;55.25;31.27;;;;;;;-0.10;100.00;93924.56;5024291;28;20619;-74
2022/02/02 07:01:38;;;;;;;50.25;30.15;;;;;;;-0.13;100.00;93929.94;5082039;28;20056;-75
2022/02/02 07:06:24;;;;;;;52.78;29.13;;;;;;;-0.09;100.00;93921.06;5047128;28;20135;-75
2022/02/02 07:09:17;;;;;;;48.10;28.75;;;;;;;-0.11;100.00;93925.50;5027830;28;20390;-75
2022/02/02 07:12:47;;;;;;;45.55;27.65;;;;;;;-0.05;100.00;93925.78;5056472;28;20025;-75
2022/02/02 07:22:15;;;;;;;44.42;26.42;;;;;;;0.17;100.00;93918.81;5048912;28;20099;-75
2022/02/02 07:27:41;;;;;;;49.58;27.52;;;;;;;0.26;100.00;93923.09;5049971;28;20111;-75
2022/02/02 07:30:21;;;;;;;49.15;27.90;;;;;;;0.32;100.00;93920.81;5052397;28;20062;-75
2022/02/02 07:32:53;;;;;;;48.30;27.80;;;;;;;0.31;100.00;93919.22;5048363;28;20574;-75
2022/02/02 07:35:33;;;;;;;39.53;25.65;;;;;;;0.35;100.00;93918.00;5068272;28;20032;-74
2022/02/02 07:38:10;;;;;;;46.05;28.00;;;;;;;0.26;100.00;93912.91;5039564;28;20066;-75
2022/02/02 07:40:37;;;;;;;49.97;27.95;;;;;;;0.27;100.00;93912.78;5048023;28;20032;-75
2022/02/02 07:43:04;;;;;;;43.33;25.60;;;;;;;0.33;100.00;93922.44;5030945;28;20529;-74
2022/02/02 07:45:31;;;;;;;48.10;28.05;;;;;;;0.47;100.00;93914.38;5063954;28;20029;-74
2022/02/02 07:48:04;;;;;;;43.58;27.30;;;;;;;0.52;100.00;93912.22;5047087;28;20043;-74
2022/02/02 07:50:34;;;;;;;39.75;24.65;;;;;;;0.40;100.00;93915.84;5045109;28;20028;-75
2022/02/02 07:53:07;;;;;;;41.08;25.90;;;;;;;0.44;100.00;93917.19;5049901;28;20568;-75
2022/02/02 07:55:34;;;;;;;41.75;26.83;;;;;;;0.45;100.00;93911.16;5052276;28;20042;-74
2022/02/02 07:58:01;;;;;;;45.47;29.48;;;;;;;0.29;100.00;93915.97;5062119;28;20035;-75
2022/02/02 08:00:26;;;;;;;42.65;26.10;;;;;;;0.33;100.00;93907.16;5045928;28;20036;-75
2022/02/02 08:05:21;;;;;;;42.65;27.88;;;;;;;0.64;100.00;93910.34;5051909;28;20029;-75
2022/02/02 08:10:39;;;;;;;47.38;29.95;;;;;;;0.48;100.00;93889.72;5021698;28;20051;-75
2022/02/02 08:13:26;;;;;;;43.90;29.00;;;;;;;0.56;100.00;93899.22;5066541;28;20078;-75
2022/02/02 08:16:04;;;;;;;44.63;28.40;;;;;;;0.82;100.00;93897.69;5046299;28;20020;-75
2022/02/02 08:18:30;;;;;;;44.53;30.00;;;;;;;0.67;100.00;93886.34;5045705;28;20020;-75
2022/02/02 08:20:55;;;;;;;49.05;30.10;;;;;;;0.73;100.00;93883.22;5046753;28;21268;-76
2022/02/02 08:23:21;;;;;;;48.83;28.55;;;;;;;0.87;100.00;93887.84;5047262;28;20573;-75
2022/02/02 08:25:46;;;;;;;46.80;29.02;;;;;;;0.95;100.00;93882.88;5050269;28;20023;-74
2022/02/02 08:28:12;;;;;;;42.83;25.25;;;;;;;1.14;100.00;93877.72;5049975;28;20033;-75
2022/02/02 08:30:38;;;;;;;42.08;26.35;;;;;;;0.99;100.00;93876.56;5047151;28;20071;-75
2022/02/02 08:33:06;;;;;;;41.95;26.45;;;;;;;0.87;100.00;93864.94;5062560;28;20040;-75
2022/02/02 08:35:49;;;;;;;39.80;25.40;;;;;;;1.08;100.00;93862.19;5043799;28;21183;-75
2022/02/02 08:43:11;;;;;;;44.85;26.90;;;;;;;0.86;100.00;93856.50;5045828;28;20024;-75
2022/02/02 08:45:40;;;;;;;46.55;27.55;;;;;;;1.14;100.00;93864.97;5033590;28;20103;-75
2022/02/02 08:48:10;;;;;;;37.80;26.10;;;;;;;1.24;100.00;93860.63;5049438;28;20039;-75
2022/02/02 08:50:48;;;;;;;41.92;27.75;;;;;;;1.26;100.00;93852.81;5075337;28;20036;-74
2022/02/02 08:53:32;;;;;;;44.70;26.70;;;;;;;1.47;100.00;93855.94;5035804;28;20086;-74
2022/02/02 09:00:55;;;;;;;43.45;26.83;;;;;;;1.49;100.00;93859.94;5047490;28;20489;-75
2022/02/02 09:06:06;;;;;;;40.25;25.10;;;;;;;1.88;100.00;93855.38;5067970;28;20027;-72
2022/02/02 09:08:35;;;;;;;33.40;22.95;;;;;;;2.18;100.00;93859.31;5052105;28;20485;-71
2022/02/02 09:24:26;;;;;;;32.83;21.60;;;;;;;2.90;100.00;93859.00;5043031;28;20025;-75
2022/02/02 09:35:00;;;;;;;29.95;19.58;;;;;;;3.46;100.00;93832.88;5058591;28;20064;-75
2022/02/02 09:37:27;;;;;;;30.02;20.60;;;;;;;3.43;100.00;93824.69;5066548;28;20067;-75
2022/02/02 09:40:05;;;;;;;30.95;19.27;;;;;;;3.57;100.00;93827.44;5045504;28;20025;-75
2022/02/02 09:42:32;;;;;;;32.25;21.77;;;;;;;3.59;100.00;93829.84;5069796;28;20077;-75
2022/02/02 09:45:02;;;;;;;31.13;19.38;;;;;;;3.28;100.00;93828.78;5051337;28;20433;-75
2022/02/02 09:47:34;;;;;;;36.20;19.60;;;;;;;3.90;100.00;93820.63;5064519;28;20617;-78
2022/02/02 09:50:14;;;;;;;35.08;21.77;;;;;;;4.15;99.23;93819.66;5031425;28;20309;-78
2022/02/02 09:52:43;;;;;;;28.02;19.52;;;;;;;4.40;95.52;93817.88;5047516;28;20040;-78
2022/02/02 09:55:16;;;;;;;29.40;18.02;;;;;;;4.44;93.88;93816.59;5067139;28;20464;-77
2022/02/02 10:03:20;;;;;;;27.77;20.50;;;;;;;3.78;100.00;93814.22;5041695;28;20609;-75
2022/02/02 10:06:18;;;;;;;29.85;21.60;;;;;;;3.51;100.00;93812.72;5062042;28;20031;-75
2022/02/02 10:14:25;;;;;;;33.45;20.10;;;;;;;2.83;100.00;93814.53;5040638;28;20043;-75
2022/02/02 10:16:50;;;;;;;38.42;21.17;;;;;;;3.06;100.00;93812.25;5058480;28;20052;-75
2022/02/02 10:19:20;;;;;;;32.88;22.02;;;;;;;2.83;100.00;93813.72;5081437;28;20028;-75
2022/02/02 10:21:46;;;;;;;36.80;22.35;;;;;;;2.75;100.00;93803.47;5067500;28;20020;-75
2022/02/02 10:24:12;;;;;;;35.60;22.67;;;;;;;2.58;100.00;93811.06;5062598;28;20811;-75
2022/02/02 10:26:44;;;;;;;31.13;21.83;;;;;;;2.56;100.00;93812.16;5044075;28;20552;-75
2022/02/02 10:29:10;;;;;;;35.15;23.58;;;;;;;2.59;100.00;93807.56;5075278;28;20039;-75
2022/02/02 10:31:41;;;;;;;32.72;23.58;;;;;;;2.80;100.00;93791.03;5041106;28;20040;-75
2022/02/02 10:34:16;;;;;;;38.83;24.30;;;;;;;2.19;100.00;93796.25;5055418;28;20056;-76
2022/02/02 10:36:42;;;;;;;39.13;22.60;;;;;;;2.42;100.00;93800.75;5059813;28;20036;-75
2022/02/02 10:39:15;;;;;;;39.83;23.27;;;;;;;2.39;100.00;93797.69;5043637;28;20020;-74
2022/02/02 10:41:56;;;;;;;39.33;23.27;;;;;;;2.05;100.00;93805.28;5041879;28;20064;-75
2022/02/02 10:44:38;;;;;;;;;;;;;;;1.99;100.00;93806.66;5065934;28;20029;-75
2022/02/02 10:47:15;;;;;;;36.42;23.48;;;;;;;2.09;100.00;93804.81;5068291;28;19916;-75
2022/02/02 10:49:54;;;;;;;33.30;23.60;;;;;;;2.04;100.00;93798.56;5072758;28;20036;-76
2022/02/02 11:00:49;;;;;;;39.05;21.55;;;;;;;1.79;100.00;93807.78;5060041;28;20107;-75
2022/02/02 11:08:38;;;;;;;33.95;21.95;;;;;;;1.74;100.00;93809.97;5047956;28;20412;-76
2022/02/02 11:11:04;;;;;;;33.95;22.00;;;;;;;1.91;100.00;93808.34;5047240;28;20421;-77
2022/02/02 11:13:29;;;;;;;33.55;20.48;;;;;;;1.84;100.00;93804.78;5048812;28;20016;-77
2022/02/02 11:15:57;;;;;;;37.17;22.60;;;;;;;1.77;100.00;93806.31;5041630;28;20454;-77
2022/02/02 11:18:29;;;;;;;38.22;22.92;;;;;;;2.20;100.00;93808.91;5044915;28;20055;-76
2022/02/02 11:21:05;;;;;;;36.72;21.75;;;;;;;2.36;100.00;93795.44;5047077;28;20069;-76
2022/02/02 11:23:41;;;;;;;34.72;21.35;;;;;;;2.77;100.00;93788.78;5053315;28;20536;-77
2022/02/02 11:26:06;;;;;;;37.70;21.67;;;;;;;2.88;100.00;93791.09;5065769;28;20439;-76
2022/02/02 11:28:33;;;;;;;29.85;20.15;;;;;;;2.92;100.00;93794.94;5067902;28;20028;-77
2022/02/02 11:31:15;;;;;;;37.00;21.30;;;;;;;2.69;100.00;93789.56;5045933;28;20048;-76
2022/02/02 11:33:50;;;;;;;29.83;20.45;;;;;;;2.66;100.00;93793.19;5078231;28;20139;-76
2022/02/02 11:36:28;;;;;;;34.38;21.17;;;;;;;2.67;100.00;93784.59;5049100;28;20043;-76
2022/02/02 11:38:55;;;;;;;35.45;21.92;;;;;;;2.60;100.00;93781.03;5045772;28;20554;-76
2022/02/02 11:44:11;;;;;;;35.55;22.27;;;;;;;2.91;100.00;93793.34;5072362;28;20033;-76
2022/02/02 11:50:02;;;;;;;31.85;21.35;;;;;;;3.04;100.00;93788.59;4995727;28;20069;-76
2022/02/02 11:52:35;;;;;;;27.92;19.35;;;;;;;3.20;98.83;93778.41;5008942;28;20032;-75
2022/02/02 11:55:01;;;;;;;28.02;19.00;;;;;;;3.13;96.66;93768.00;5003442;28;20048;-75
2022/02/02 11:57:36;;;;;;;25.50;17.58;;;;;;;3.08;95.02;93769.44;5024293;28;20524;-76
2022/02/02 12:11:40;;;;;;;32.08;20.23;;;;;;;3.93;90.94;93770.84;5006642;28;20053;-75
2022/02/02 12:57:54;;;;;;;30.85;19.50;;;;;;;3.92;88.24;93764.91;4995770;28;19925;-77
2022/02/02 13:00:22;;;;;;;31.83;18.85;;;;;;;3.65;91.19;93767.78;5006071;28;20040;-77
2022/02/02 13:02:49;;;;;;;28.65;18.58;;;;;;;3.47;90.91;93765.34;5003667;28;20064;-77
2022/02/02 13:05:16;;;;;;;28.25;19.10;;;;;;;3.25;92.92;93760.03;5004901;28;20112;-77
2022/02/02 13:07:42;;;;;;;27.20;16.75;;;;;;;3.97;89.72;93759.31;5004907;28;20026;-77
2022/02/02 13:10:12;;;;;;;22.73;15.60;;;;;;;3.53;90.18;93756.28;4988030;28;20050;-77
2022/02/02 13:12:56;;;;;;;23.20;16.05;;;;;;;3.10;93.39;93752.16;5003361;28;20560;-76
2022/02/02 13:23:31;;;;;;;23.58;14.52;;;;;;;2.00;98.38;93756.41;5037160;28;20038;-77
2022/02/02 13:26:02;;;;;;;23.70;14.80;;;;;;;2.16;98.37;93761.63;5032700;28;20040;-77
2022/02/02 13:28:48;;;;;;;23.52;13.77;;;;;;;2.15;98.58;93752.38;5037402;28;20127;-76
2022/02/02 13:35:04;;;;;;;23.20;14.35;;;;;;;1.99;99.33;93765.81;5004276;28;20018;-77
2022/02/02 13:37:35;;;;;;;25.25;14.38;;;;;;;2.04;100.00;93757.72;5001540;28;21077;-77
2022/02/02 13:43:03;;;;;;;22.77;14.48;;;;;;;1.77;100.00;93768.84;5003219;28;20128;-77
2022/02/02 13:59:26;;;;;;;30.42;17.17;;;;;;;2.40;96.47;93778.88;5008438;28;20462;-78
2022/02/02 14:02:11;;;;;;;30.45;19.50;;;;;;;2.16;97.58;93771.84;5024887;28;20646;-77
2022/02/02 14:04:59;;;;;;;28.45;17.67;;;;;;;2.28;96.60;93774.97;5004713;28;20030;-79
2022/02/02 14:07:43;;;;;;;33.47;18.15;;;;;;;2.32;96.67;93771.13;5003001;28;20117;-77
2022/02/02 14:32:00;;;;;;;27.83;17.90;;;;;;;1.85;97.70;93775.78;5022257;28;20045;-81
2022/02/02 14:34:26;;;;;;;32.75;17.88;;;;;;;1.74;98.46;93781.88;5033468;28;20494;-80
2022/02/02 14:36:52;;;;;;;29.00;18.52;;;;;;;1.76;98.01;93784.31;5033710;28;20072;-80
2022/02/02 14:40:12;;;;;;;32.88;18.40;;;;;;;1.75;99.30;93782.69;5014009;28;20092;-80
2022/02/02 14:42:14;;;;;;;29.02;17.92;;;;;;;1.70;99.22;93780.59;5028089;28;20061;-80
2022/02/02 14:44:42;;;;;;;31.00;18.58;;;;;;;1.56;98.69;93784.47;5080429;28;20026;-81
2022/02/02 14:47:12;;;;;;;33.22;20.42;;;;;;;1.48;99.50;93783.56;5033559;28;20040;-80
2022/02/02 14:50:03;;;;;;;;;;;;;;;1.32;100.00;93776.56;5032579;28;20006;-80
2022/02/02 14:52:49;;;;;;;34.75;19.80;;;;;;;1.48;100.00;93750.41;5095858;23;19930;-80
2022/02/02 15:28:42;;;;;;;37.63;23.63;;;;;;;0.82;100.00;93788.13;4970013;28;20062;-78
2022/02/02 15:31:03;;;;;;;45.22;24.83;;;;;;;0.94;100.00;93792.09;4987355;28;20034;-79
2022/02/02 15:33:31;;;;;;;39.75;23.58;;;;;;;0.72;100.00;93797.56;4993054;28;20025;-81
2022/02/02 15:38:41;;;;;;;44.22;23.05;;;;;;;0.51;100.00;93793.47;4996072;28;20077;-80
2022/02/02 15:41:16;;;;;;;41.70;23.00;;;;;;;0.58;100.00;93803.13;4990165;28;20043;-79
2022/02/02 15:43:56;;;;;;;38.95;21.80;;;;;;;0.49;100.00;93804.75;4968022;28;20027;-80
2022/02/02 16:02:43;;;;;;;42.28;26.60;;;;;;;-0.04;100.00;93822.28;4967175;28;20134;-80
2022/02/02 16:05:14;;;;;;;42.55;26.15;;;;;;;-0.05;100.00;93826.56;4966660;28;20031;-79
2022/02/02 16:07:39;;;;;;;44.03;27.95;;;;;;;-0.13;100.00;93828.97;4963403;28;20034;-79
2022/02/02 16:10:08;;;;;;;46.75;26.42;;;;;;;-0.10;100.00;93830.47;4965280;28;20102;-79
2022/02/02 16:12:43;;;;;;;44.30;26.60;;;;;;;-0.08;100.00;93834.47;4967406;28;20427;-80
2022/02/02 16:36:55;;;;;;;47.08;25.38;;;;;;;-0.26;100.00;93860.72;4992666;28;20057;-81
2022/02/02 16:39:15;;;;;;;41.70;24.58;;;;;;;-0.13;100.00;93866.34;4986737;28;20103;-81
2022/02/02 16:44:25;;;;;;;120.70;73.68;;;;;;;-0.24;100.00;93871.53;4976469;28;20070;-80
2022/02/02 16:46:52;;;;;;;94.90;58.20;;;;;;;-0.12;100.00;93873.00;4975823;28;20035;-80
2022/02/02 16:49:18;;;;;;;56.13;34.83;;;;;;;-0.21;100.00;93869.53;4974243;28;20034;-80
2022/02/02 16:51:43;;;;;;;56.47;38.92;;;;;;;-0.21;100.00;93878.91;4977728;28;20034;-80
2022/02/02 16:54:16;;;;;;;46.30;31.75;;;;;;;-0.29;100.00;93874.47;4977435;28;20082;-81
2022/02/02 17:32:16;;;;;;;31.73;21.45;;;;;;;-0.40;100.00;93854.25;4993666;28;20078;-82
2022/02/02 17:34:48;;;;;;;40.45;26.17;;;;;;;-0.42;100.00;93850.25;5016800;28;20026;-81
2022/02/02 17:40:18;;;;;;;36.65;22.88;;;;;;;-0.32;100.00;93858.69;4978161;28;20104;-80
2022/02/02 17:56:27;;;;;;;41.42;26.67;;;;;;;-0.10;100.00;93866.06;4997590;28;20065;-79
2022/02/02 18:20:51;;;;;;;12.10;9.90;;;;;;;0.14;100.00;93880.91;5001798;28;20044;-81
2022/02/02 18:23:26;;;;;;;17.08;11.55;;;;;;;0.28;100.00;93906.75;4992819;28;20037;-82
2022/02/02 18:31:23;;;;;;;12.68;7.88;;;;;;;0.15;100.00;93888.41;5011029;28;20034;-81
2022/02/02 18:36:28;;;;;;;14.45;9.70;;;;;;;0.21;100.00;93890.41;5022355;28;20026;-81
2022/02/02 18:47:21;;;;;;;17.33;10.65;;;;;;;-0.15;100.00;93889.34;5011374;28;20038;-82
2022/02/02 18:50:05;;;;;;;18.05;10.27;;;;;;;-0.23;100.00;93901.13;5010206;28;20081;-81
2022/02/02 18:55:34;;;;;;;21.73;10.75;;;;;;;-0.28;100.00;93909.16;5010500;28;20037;-81
2022/02/02 19:01:15;;;;;;;22.77;12.18;;;;;;;-0.26;100.00;93925.09;5016418;28;20069;-81
2022/02/02 20:05:38;;;;;;;11.48;8.45;;;;;;;-0.06;100.00;93986.94;4987312;28;20045;-77
2022/02/02 20:11:03;;;;;;;14.90;8.70;;;;;;;0.08;100.00;93998.50;4986712;28;20589;-78
2022/02/02 20:13:28;;;;;;;14.43;8.48;;;;;;;0.11;100.00;93993.94;4989362;28;20022;-78
2022/02/02 20:15:54;;;;;;;11.30;8.38;;;;;;;0.19;100.00;93998.38;4982233;28;20058;-78
2022/02/02 20:18:22;;;;;;;13.00;8.80;;;;;;;0.12;100.00;94003.19;4981835;28;20956;-77
2022/02/02 20:20:47;;;;;;;10.50;8.05;;;;;;;0.22;100.00;94004.03;4960325;28;20066;-76
2022/02/02 20:23:14;;;;;;;14.57;9.18;;;;;;;0.08;100.00;94004.41;4949256;28;20063;-76
2022/02/02 20:25:46;;;;;;;14.48;9.95;;;;;;;0.17;100.00;94003.59;4967771;28;20026;-79
2022/02/02 20:28:11;;;;;;;14.52;9.80;;;;;;;0.26;100.00;94005.34;4961526;28;20058;-77
2022/02/02 20:30:37;;;;;;;14.77;9.98;;;;;;;0.24;100.00;94017.41;4973309;28;20503;-78
2022/02/02 20:33:04;;;;;;;15.52;8.98;;;;;;;0.32;100.00;94004.81;4972389;28;20113;-80
2022/02/02 20:35:29;;;;;;;12.27;9.80;;;;;;;0.35;100.00;94009.63;4974056;28;20045;-77
2022/02/02 20:37:55;;;;;;;14.50;10.95;;;;;;;0.33;100.00;94000.53;4972201;28;20027;-77
2022/02/02 20:40:22;;;;;;;14.88;11.07;;;;;;;0.21;100.00;93991.41;4967861;28;20043;-76
2022/02/02 21:06:29;;;;;;;15.32;9.30;;;;;;;0.28;100.00;94000.94;4963840;28;20452;-78
2022/02/02 21:09:08;;;;;;;11.57;8.98;;;;;;;0.29;100.00;94000.00;4953114;28;20121;-77
2022/02/02 21:11:51;;;;;;;11.87;8.30;;;;;;;0.22;100.00;93998.94;4953035;28;20030;-77
2022/02/02 21:14:20;;;;;;;12.93;7.95;;;;;;;0.18;100.00;93987.41;4968866;28;20046;-77
2022/02/02 21:16:47;;;;;;;10.63;8.15;;;;;;;0.19;100.00;93998.38;4967297;28;20043;-76
2022/02/02 21:19:23;;;;;;;12.15;8.90;;;;;;;0.17;100.00;94011.22;4970580;28;20025;-76
2022/02/02 21:21:55;;;;;;;11.73;10.05;;;;;;;0.19;100.00;94001.75;4966626;28;20022;-75
2022/02/02 21:29:21;;;;;;;11.18;7.60;;;;;;;0.02;100.00;94004.91;4945454;28;20128;-75
2022/02/02 21:31:48;;;;;;;12.13;9.77;;;;;;;0.05;100.00;94012.28;4959284;28;20074;-76
2022/02/02 21:34:13;;;;;;;13.27;9.63;;;;;;;-0.07;100.00;94003.97;4965968;28;20037;-75
2022/02/02 21:36:39;;;;;;;13.65;9.43;;;;;;;-0.08;100.00;94016.81;4967158;28;20039;-75
2022/02/02 21:39:07;;;;;;;11.45;8.80;;;;;;;-0.15;100.00;94019.06;4963336;28;20023;-76
2022/02/02 21:41:36;;;;;;;11.63;8.43;;;;;;;-0.30;100.00;94009.41;4961941;28;20022;-76
2022/02/02 21:44:09;;;;;;;9.70;8.15;;;;;;;-0.32;100.00;94021.44;4965149;28;20035;-75
2022/02/02 21:46:34;;;;;;;12.35;8.55;;;;;;;-0.41;100.00;94010.28;4949142;28;20476;-75
2022/02/02 21:49:01;;;;;;;12.05;9.48;;;;;;;-0.37;100.00;94008.28;4948926;28;20031;-76
2022/02/02 21:51:31;;;;;;;15.35;10.68;;;;;;;-0.50;100.00;94013.59;4950884;28;20069;-75
2022/02/02 21:53:56;;;;;;;;;;;;;;;-0.57;100.00;94013.31;4971303;28;20034;-74
2022/02/02 21:56:22;;;;;;;13.43;9.40;;;;;;;-0.65;100.00;94014.88;4972627;28;19921;-75
2022/02/02 21:58:49;;;;;;;14.45;10.48;;;;;;;-0.59;100.00;94024.53;4944954;28;20121;-76
2022/02/02 22:01:15;;;;;;;17.85;10.93;;;;;;;-0.59;100.00;94029.63;4950965;28;20594;-76
2022/02/02 22:03:40;;;;;;;18.17;12.63;;;;;;;-0.57;100.00;94031.09;4949983;28;20039;-75
2022/02/02 22:06:06;;;;;;;18.90;11.48;;;;;;;-0.66;100.00;94021.69;4966613;28;20146;-76
2022/02/02 22:08:31;;;;;;;19.75;12.20;;;;;;;-0.75;100.00;94035.16;4967017;28;20026;-75
2022/02/02 22:10:57;;;;;;;15.93;11.05;;;;;;;-0.71;100.00;94028.91;4965113;28;20420;-75
2022/02/02 22:13:33;;;;;;;14.82;10.27;;;;;;;-0.63;100.00;94043.50;4966859;28;20373;-76
2022/02/02 22:16:05;;;;;;;14.38;9.75;;;;;;;-0.64;100.00;94044.44;4965867;28;20532;-76
2022/02/02 22:18:30;;;;;;;14.93;11.07;;;;;;;-0.60;100.00;94044.06;4951575;28;20520;-75
2022/02/02 22:20:56;;;;;;;16.70;10.30;;;;;;;-0.69;100.00;94038.94;4967098;28;20058;-75
2022/02/02 22:23:23;;;;;;;13.63;10.00;;;;;;;-0.73;100.00;94040.09;4966725;28;20173;-75
2022/02/02 22:25:49;;;;;;;13.23;9.85;;;;;;;-0.75;100.00;94045.34;4966227;28;20516;-75
2022/02/02 22:28:15;;;;;;;12.07;9.15;;;;;;;-0.72;100.00;94046.81;4961419;28;20043;-75
2022/02/02 22:30:40;;;;;;;11.85;9.02;;;;;;;-0.50;100.00;94050.91;4948063;28;20503;-75
2022/02/02 22:33:05;;;;;;;12.85;10.13;;;;;;;-0.47;100.00;94046.38;4965659;28;20030;-75
2022/02/02 22:35:31;;;;;;;15.90;10.35;;;;;;;-0.44;100.00;94046.13;4950665;28;20026;-76
2022/02/02 22:37:56;;;;;;;13.35;9.75;;;;;;;-0.49;100.00;94050.00;4949121;28;20023;-76
2022/02/02 22:40:25;;;;;;;15.93;11.07;;;;;;;-0.49;100.00;94058.44;4949335;28;20022;-76